sensor_id;sensor_type;location;lat;lon;timestamp;P1;durP1;ratioP1;P2;durP2;ratioP2
49412;SDS011;35493;50.276;9.372;2022-12-07T00:00:44;10.15;;;5.55;;
49412;SDS011;35493;50.276;9.372;2022-12-07T00:03:11;11.75;;;5.90;;
49412;SDS011;35493;50.276;9.372;2022-12-07T00:05:39;11.25;;;5.53;;
49412;SDS011;35493;50.276;9.372;2022-12-07T00:08:07;12.15;;;5.70;;
49412;SDS011;35493;50.276;9.372;2022-12-07T00:10:34;10.68;;;5.90;;
49412;SDS011;35493;50.276;9.372;2022-12-07T00:13:01;12.25;;;6.05;;
49412;SDS011;35493;50.276;9.372;2022-12-07T00:15:28;13.40;;;6.20;;
49412;SDS011;35493;50.276;9.372;2022-12-07T00:17:56;11.57;;;6.28;;
49412;SDS011;35493;50.276;9.372;2022-12-07T00:20:23;11.43;;;5.95;;
49412;SDS011;35493;50.276;9.372;2022-12-07T00:22:50;11.02;;;6.25;;
49412;SDS011;35493;50.276;9.372;2022-12-07T00:25:20;15.05;;;7.05;;
49412;SDS011;35493;50.276;9.372;2022-12-07T00:27:47;11.63;;;6.18;;
49412;SDS011;35493;50.276;9.372;2022-12-07T00:30:14;11.52;;;6.10;;
49412;SDS011;35493;50.276;9.372;2022-12-07T00:32:41;13.00;;;6.35;;
49412;SDS011;35493;50.276;9.372;2022-12-07T00:35:08;10.52;;;5.80;;
49412;SDS011;35493;50.276;9.372;2022-12-07T00:37:35;14.15;;;6.00;;
49412;SDS011;35493;50.276;9.372;2022-12-07T00:40:02;11.57;;;5.70;;
49412;SDS011;35493;50.276;9.372;2022-12-07T00:42:30;11.30;;;5.47;;
49412;SDS011;35493;50.276;9.372;2022-12-07T00:44:57;12.43;;;5.90;;
49412;SDS011;35493;50.276;9.372;2022-12-07T00:47:24;10.98;;;5.70;;
49412;SDS011;35493;50.276;9.372;2022-12-07T00:49:51;11.07;;;5.65;;
49412;SDS011;35493;50.276;9.372;2022-12-07T00:52:18;11.48;;;5.40;;
49412;SDS011;35493;50.276;9.372;2022-12-07T00:54:45;9.93;;;5.28;;
49412;SDS011;35493;50.276;9.372;2022-12-07T00:57:12;11.05;;;5.85;;
49412;SDS011;35493;50.276;9.372;2022-12-07T00:59:40;10.43;;;5.50;;
49412;SDS011;35493;50.276;9.372;2022-12-07T01:02:07;11.93;;;6.32;;
49412;SDS011;35493;50.276;9.372;2022-12-07T01:04:34;11.05;;;5.72;;
49412;SDS011;35493;50.276;9.372;2022-12-07T01:07:07;11.43;;;5.90;;
49412;SDS011;35493;50.276;9.372;2022-12-07T01:09:34;12.88;;;6.50;;
49412;SDS011;35493;50.276;9.372;2022-12-07T01:12:01;13.40;;;6.95;;
49412;SDS011;35493;50.276;9.372;2022-12-07T01:14:29;13.35;;;7.45;;
49412;SDS011;35493;50.276;9.372;2022-12-07T01:16:58;13.77;;;7.40;;
49412;SDS011;35493;50.276;9.372;2022-12-07T01:19:25;14.65;;;7.13;;
49412;SDS011;35493;50.276;9.372;2022-12-07T01:21:52;13.05;;;7.30;;
49412;SDS011;35493;50.276;9.372;2022-12-07T01:24:19;14.52;;;7.70;;
49412;SDS011;35493;50.276;9.372;2022-12-07T01:26:48;13.20;;;7.13;;
49412;SDS011;35493;50.276;9.372;2022-12-07T01:29:15;13.80;;;7.18;;
49412;SDS011;35493;50.276;9.372;2022-12-07T01:31:42;12.90;;;7.03;;
49412;SDS011;35493;50.276;9.372;2022-12-07T01:34:10;12.80;;;7.18;;
49412;SDS011;35493;50.276;9.372;2022-12-07T01:36:39;12.15;;;7.28;;
49412;SDS011;35493;50.276;9.372;2022-12-07T01:39:07;14.35;;;7.07;;
49412;SDS011;35493;50.276;9.372;2022-12-07T01:41:36;14.43;;;7.32;;
49412;SDS011;35493;50.276;9.372;2022-12-07T01:44:13;12.52;;;6.82;;
49412;SDS011;35493;50.276;9.372;2022-12-07T01:46:46;13.57;;;7.03;;
49412;SDS011;35493;50.276;9.372;2022-12-07T01:49:17;13.55;;;7.25;;
49412;SDS011;35493;50.276;9.372;2022-12-07T01:51:49;13.23;;;6.90;;
49412;SDS011;35493;50.276;9.372;2022-12-07T01:54:20;14.23;;;7.13;;
49412;SDS011;35493;50.276;9.372;2022-12-07T01:56:50;14.70;;;7.40;;
49412;SDS011;35493;50.276;9.372;2022-12-07T01:59:20;13.80;;;7.47;;
49412;SDS011;35493;50.276;9.372;2022-12-07T02:01:51;12.85;;;7.43;;
49412;SDS011;35493;50.276;9.372;2022-12-07T02:04:20;13.35;;;7.13;;
49412;SDS011;35493;50.276;9.372;2022-12-07T02:06:48;15.30;;;7.95;;
49412;SDS011;35493;50.276;9.372;2022-12-07T02:09:16;14.88;;;7.22;;
49412;SDS011;35493;50.276;9.372;2022-12-07T02:11:43;13.20;;;6.80;;
49412;SDS011;35493;50.276;9.372;2022-12-07T02:14:11;13.30;;;7.10;;
49412;SDS011;35493;50.276;9.372;2022-12-07T02:16:40;12.15;;;6.93;;
49412;SDS011;35493;50.276;9.372;2022-12-07T02:19:30;14.60;;;6.50;;
49412;SDS011;35493;50.276;9.372;2022-12-07T02:22:46;13.50;;;7.55;;
49412;SDS011;35493;50.276;9.372;2022-12-07T02:25:42;13.35;;;7.30;;
49412;SDS011;35493;50.276;9.372;2022-12-07T02:28:35;13.60;;;6.95;;
49412;SDS011;35493;50.276;9.372;2022-12-07T02:31:10;12.55;;;6.63;;
49412;SDS011;35493;50.276;9.372;2022-12-07T02:33:46;12.88;;;6.68;;
49412;SDS011;35493;50.276;9.372;2022-12-07T02:36:20;10.90;;;6.50;;
49412;SDS011;35493;50.276;9.372;2022-12-07T02:38:53;13.73;;;7.93;;
49412;SDS011;35493;50.276;9.372;2022-12-07T02:41:24;14.20;;;7.00;;
49412;SDS011;35493;50.276;9.372;2022-12-07T02:43:55;14.05;;;6.88;;
49412;SDS011;35493;50.276;9.372;2022-12-07T02:46:27;13.18;;;7.60;;
49412;SDS011;35493;50.276;9.372;2022-12-07T02:48:58;14.07;;;7.82;;
49412;SDS011;35493;50.276;9.372;2022-12-07T02:51:25;13.80;;;7.78;;
49412;SDS011;35493;50.276;9.372;2022-12-07T02:53:55;14.00;;;7.20;;
49412;SDS011;35493;50.276;9.372;2022-12-07T02:56:24;13.85;;;7.68;;
49412;SDS011;35493;50.276;9.372;2022-12-07T02:59:00;17.85;;;8.80;;
49412;SDS011;35493;50.276;9.372;2022-12-07T03:01:37;19.58;;;9.35;;
49412;SDS011;35493;50.276;9.372;2022-12-07T03:04:14;16.80;;;8.77;;
49412;SDS011;35493;50.276;9.372;2022-12-07T03:06:51;18.35;;;10.45;;
49412;SDS011;35493;50.276;9.372;2022-12-07T03:09:25;21.65;;;11.20;;
49412;SDS011;35493;50.276;9.372;2022-12-07T03:12:00;21.67;;;11.82;;
49412;SDS011;35493;50.276;9.372;2022-12-07T03:14:37;21.10;;;12.32;;
49412;SDS011;35493;50.276;9.372;2022-12-07T03:17:13;21.10;;;11.27;;
49412;SDS011;35493;50.276;9.372;2022-12-07T03:19:44;22.23;;;11.75;;
49412;SDS011;35493;50.276;9.372;2022-12-07T03:22:13;20.35;;;10.70;;
49412;SDS011;35493;50.276;9.372;2022-12-07T03:24:42;19.15;;;10.80;;
49412;SDS011;35493;50.276;9.372;2022-12-07T03:27:13;20.83;;;10.75;;
49412;SDS011;35493;50.276;9.372;2022-12-07T03:29:47;19.33;;;9.70;;
49412;SDS011;35493;50.276;9.372;2022-12-07T03:32:19;18.98;;;9.45;;
49412;SDS011;35493;50.276;9.372;2022-12-07T03:34:52;15.98;;;8.60;;
49412;SDS011;35493;50.276;9.372;2022-12-07T03:37:29;17.95;;;9.63;;
49412;SDS011;35493;50.276;9.372;2022-12-07T03:40:01;17.43;;;9.37;;
49412;SDS011;35493;50.276;9.372;2022-12-07T03:42:33;17.15;;;9.05;;
49412;SDS011;35493;50.276;9.372;2022-12-07T03:45:01;17.45;;;10.00;;
49412;SDS011;35493;50.276;9.372;2022-12-07T03:47:31;19.73;;;9.88;;
49412;SDS011;35493;50.276;9.372;2022-12-07T03:50:02;17.85;;;9.80;;
49412;SDS011;35493;50.276;9.372;2022-12-07T03:52:36;18.27;;;10.07;;
49412;SDS011;35493;50.276;9.372;2022-12-07T03:55:08;16.13;;;8.98;;
49412;SDS011;35493;50.276;9.372;2022-12-07T03:57:38;20.17;;;9.40;;
49412;SDS011;35493;50.276;9.372;2022-12-07T04:00:08;17.85;;;9.55;;
49412;SDS011;35493;50.276;9.372;2022-12-07T04:02:41;15.35;;;8.40;;
49412;SDS011;35493;50.276;9.372;2022-12-07T04:05:09;16.42;;;8.45;;
49412;SDS011;35493;50.276;9.372;2022-12-07T04:07:36;18.42;;;8.90;;
49412;SDS011;35493;50.276;9.372;2022-12-07T04:10:03;15.88;;;8.50;;
49412;SDS011;35493;50.276;9.372;2022-12-07T04:12:31;14.57;;;8.27;;
49412;SDS011;35493;50.276;9.372;2022-12-07T04:14:58;14.93;;;8.35;;
49412;SDS011;35493;50.276;9.372;2022-12-07T04:17:25;14.27;;;7.45;;
49412;SDS011;35493;50.276;9.372;2022-12-07T04:19:53;15.80;;;7.90;;
49412;SDS011;35493;50.276;9.372;2022-12-07T04:22:20;14.20;;;7.50;;
49412;SDS011;35493;50.276;9.372;2022-12-07T04:24:47;16.60;;;7.93;;
49412;SDS011;35493;50.276;9.372;2022-12-07T04:27:14;16.02;;;8.48;;
49412;SDS011;35493;50.276;9.372;2022-12-07T04:29:41;16.92;;;8.35;;
49412;SDS011;35493;50.276;9.372;2022-12-07T04:32:08;15.60;;;8.15;;
49412;SDS011;35493;50.276;9.372;2022-12-07T04:34:35;15.45;;;8.90;;
49412;SDS011;35493;50.276;9.372;2022-12-07T04:37:05;13.55;;;8.05;;
49412;SDS011;35493;50.276;9.372;2022-12-07T04:39:32;14.45;;;8.15;;
49412;SDS011;35493;50.276;9.372;2022-12-07T04:41:59;15.43;;;8.45;;
49412;SDS011;35493;50.276;9.372;2022-12-07T04:44:27;15.45;;;8.05;;
49412;SDS011;35493;50.276;9.372;2022-12-07T04:46:55;15.93;;;7.90;;
49412;SDS011;35493;50.276;9.372;2022-12-07T04:49:23;18.08;;;8.73;;
49412;SDS011;35493;50.276;9.372;2022-12-07T04:51:50;16.45;;;8.38;;
49412;SDS011;35493;50.276;9.372;2022-12-07T04:54:19;15.68;;;7.85;;
49412;SDS011;35493;50.276;9.372;2022-12-07T04:56:46;15.93;;;8.65;;
49412;SDS011;35493;50.276;9.372;2022-12-07T04:59:13;15.82;;;9.50;;
49412;SDS011;35493;50.276;9.372;2022-12-07T05:01:41;18.70;;;9.52;;
49412;SDS011;35493;50.276;9.372;2022-12-07T05:04:09;18.23;;;9.43;;
49412;SDS011;35493;50.276;9.372;2022-12-07T05:06:36;20.30;;;9.88;;
49412;SDS011;35493;50.276;9.372;2022-12-07T05:09:03;18.40;;;9.95;;
49412;SDS011;35493;50.276;9.372;2022-12-07T05:11:32;21.63;;;9.85;;
49412;SDS011;35493;50.276;9.372;2022-12-07T05:14:06;23.10;;;10.98;;
49412;SDS011;35493;50.276;9.372;2022-12-07T05:16:35;20.05;;;10.10;;
49412;SDS011;35493;50.276;9.372;2022-12-07T05:19:02;19.65;;;9.88;;
49412;SDS011;35493;50.276;9.372;2022-12-07T05:21:29;17.80;;;9.50;;
49412;SDS011;35493;50.276;9.372;2022-12-07T05:23:56;19.45;;;10.25;;
49412;SDS011;35493;50.276;9.372;2022-12-07T05:26:23;17.92;;;9.20;;
49412;SDS011;35493;50.276;9.372;2022-12-07T05:28:52;17.35;;;8.65;;
49412;SDS011;35493;50.276;9.372;2022-12-07T05:31:20;19.08;;;8.90;;
49412;SDS011;35493;50.276;9.372;2022-12-07T05:33:47;18.60;;;9.50;;
49412;SDS011;35493;50.276;9.372;2022-12-07T05:36:15;17.55;;;9.00;;
49412;SDS011;35493;50.276;9.372;2022-12-07T05:38:42;16.48;;;8.43;;
49412;SDS011;35493;50.276;9.372;2022-12-07T05:41:09;15.35;;;7.45;;
49412;SDS011;35493;50.276;9.372;2022-12-07T05:44:00;16.20;;;8.38;;
49412;SDS011;35493;50.276;9.372;2022-12-07T05:46:27;16.15;;;8.57;;
49412;SDS011;35493;50.276;9.372;2022-12-07T05:48:54;15.18;;;7.50;;
49412;SDS011;35493;50.276;9.372;2022-12-07T05:51:21;16.20;;;7.68;;
49412;SDS011;35493;50.276;9.372;2022-12-07T05:53:48;14.57;;;7.75;;
49412;SDS011;35493;50.276;9.372;2022-12-07T05:56:15;13.27;;;7.20;;
49412;SDS011;35493;50.276;9.372;2022-12-07T05:58:42;14.68;;;6.70;;
49412;SDS011;35493;50.276;9.372;2022-12-07T06:01:28;13.93;;;7.10;;
49412;SDS011;35493;50.276;9.372;2022-12-07T06:03:55;12.35;;;6.45;;
49412;SDS011;35493;50.276;9.372;2022-12-07T06:06:22;13.07;;;6.95;;
49412;SDS011;35493;50.276;9.372;2022-12-07T06:08:48;12.93;;;6.75;;
49412;SDS011;35493;50.276;9.372;2022-12-07T06:11:16;13.07;;;6.03;;
49412;SDS011;35493;50.276;9.372;2022-12-07T06:14:02;12.45;;;6.40;;
49412;SDS011;35493;50.276;9.372;2022-12-07T06:16:30;13.07;;;7.05;;
49412;SDS011;35493;50.276;9.372;2022-12-07T06:18:57;13.48;;;6.25;;
49412;SDS011;35493;50.276;9.372;2022-12-07T06:21:24;12.15;;;6.10;;
49412;SDS011;35493;50.276;9.372;2022-12-07T06:23:51;13.30;;;6.10;;
49412;SDS011;35493;50.276;9.372;2022-12-07T06:26:18;14.13;;;7.03;;
49412;SDS011;35493;50.276;9.372;2022-12-07T06:28:45;12.88;;;6.25;;
49412;SDS011;35493;50.276;9.372;2022-12-07T06:31:12;12.27;;;5.88;;
49412;SDS011;35493;50.276;9.372;2022-12-07T06:33:40;13.02;;;6.78;;
49412;SDS011;35493;50.276;9.372;2022-12-07T06:36:08;13.07;;;6.22;;
49412;SDS011;35493;50.276;9.372;2022-12-07T06:38:35;12.95;;;6.10;;
49412;SDS011;35493;50.276;9.372;2022-12-07T06:41:02;12.23;;;6.47;;
49412;SDS011;35493;50.276;9.372;2022-12-07T06:43:30;11.65;;;6.38;;
49412;SDS011;35493;50.276;9.372;2022-12-07T06:45:56;13.23;;;6.10;;
49412;SDS011;35493;50.276;9.372;2022-12-07T06:48:23;13.02;;;6.28;;
49412;SDS011;35493;50.276;9.372;2022-12-07T06:50:52;15.02;;;6.32;;
49412;SDS011;35493;50.276;9.372;2022-12-07T06:53:19;10.55;;;6.35;;
49412;SDS011;35493;50.276;9.372;2022-12-07T06:55:45;11.23;;;5.90;;
49412;SDS011;35493;50.276;9.372;2022-12-07T06:58:12;12.80;;;6.50;;
49412;SDS011;35493;50.276;9.372;2022-12-07T07:00:39;11.85;;;6.10;;
49412;SDS011;35493;50.276;9.372;2022-12-07T07:03:06;13.25;;;6.38;;
49412;SDS011;35493;50.276;9.372;2022-12-07T07:05:33;12.35;;;6.03;;
49412;SDS011;35493;50.276;9.372;2022-12-07T07:08:02;12.50;;;6.70;;
49412;SDS011;35493;50.276;9.372;2022-12-07T07:10:30;12.50;;;6.32;;
49412;SDS011;35493;50.276;9.372;2022-12-07T07:12:56;11.73;;;6.57;;
49412;SDS011;35493;50.276;9.372;2022-12-07T07:15:23;12.65;;;6.10;;
49412;SDS011;35493;50.276;9.372;2022-12-07T07:17:50;12.88;;;5.70;;
49412;SDS011;35493;50.276;9.372;2022-12-07T07:20:17;12.38;;;6.25;;
49412;SDS011;35493;50.276;9.372;2022-12-07T07:22:44;11.95;;;5.82;;
49412;SDS011;35493;50.276;9.372;2022-12-07T07:25:14;15.02;;;5.90;;
49412;SDS011;35493;50.276;9.372;2022-12-07T07:27:41;11.93;;;6.15;;
49412;SDS011;35493;50.276;9.372;2022-12-07T07:30:08;11.38;;;5.63;;
49412;SDS011;35493;50.276;9.372;2022-12-07T07:32:36;11.07;;;5.65;;
49412;SDS011;35493;50.276;9.372;2022-12-07T07:35:03;11.55;;;6.10;;
49412;SDS011;35493;50.276;9.372;2022-12-07T07:37:31;12.52;;;6.20;;
49412;SDS011;35493;50.276;9.372;2022-12-07T07:39:58;10.23;;;5.22;;
49412;SDS011;35493;50.276;9.372;2022-12-07T07:42:26;13.88;;;6.90;;
49412;SDS011;35493;50.276;9.372;2022-12-07T07:44:53;13.05;;;6.05;;
49412;SDS011;35493;50.276;9.372;2022-12-07T07:47:20;13.05;;;6.43;;
49412;SDS011;35493;50.276;9.372;2022-12-07T07:49:47;12.57;;;6.32;;
49412;SDS011;35493;50.276;9.372;2022-12-07T07:52:14;10.75;;;5.68;;
49412;SDS011;35493;50.276;9.372;2022-12-07T07:54:41;11.93;;;5.90;;
49412;SDS011;35493;50.276;9.372;2022-12-07T07:57:09;10.90;;;6.05;;
49412;SDS011;35493;50.276;9.372;2022-12-07T07:59:37;13.63;;;6.45;;
49412;SDS011;35493;50.276;9.372;2022-12-07T08:02:05;12.88;;;6.07;;
49412;SDS011;35493;50.276;9.372;2022-12-07T08:04:31;11.00;;;5.90;;
49412;SDS011;35493;50.276;9.372;2022-12-07T08:06:58;11.25;;;6.45;;
49412;SDS011;35493;50.276;9.372;2022-12-07T08:09:26;12.57;;;5.88;;
49412;SDS011;35493;50.276;9.372;2022-12-07T08:11:53;11.38;;;6.03;;
49412;SDS011;35493;50.276;9.372;2022-12-07T08:14:21;11.25;;;5.85;;
49412;SDS011;35493;50.276;9.372;2022-12-07T08:16:50;13.05;;;6.35;;
49412;SDS011;35493;50.276;9.372;2022-12-07T08:19:17;14.15;;;6.60;;
49412;SDS011;35493;50.276;9.372;2022-12-07T08:21:43;10.77;;;6.20;;
49412;SDS011;35493;50.276;9.372;2022-12-07T08:24:10;12.55;;;6.25;;
49412;SDS011;35493;50.276;9.372;2022-12-07T08:26:37;11.98;;;6.30;;
49412;SDS011;35493;50.276;9.372;2022-12-07T08:29:04;11.95;;;6.38;;
49412;SDS011;35493;50.276;9.372;2022-12-07T08:31:31;10.35;;;6.13;;
49412;SDS011;35493;50.276;9.372;2022-12-07T08:33:59;11.13;;;6.32;;
49412;SDS011;35493;50.276;9.372;2022-12-07T08:36:26;10.32;;;5.55;;
49412;SDS011;35493;50.276;9.372;2022-12-07T08:38:53;13.45;;;6.00;;
49412;SDS011;35493;50.276;9.372;2022-12-07T08:41:20;10.95;;;5.75;;
49412;SDS011;35493;50.276;9.372;2022-12-07T08:43:47;11.57;;;6.50;;
49412;SDS011;35493;50.276;9.372;2022-12-07T08:46:16;11.50;;;6.43;;
49412;SDS011;35493;50.276;9.372;2022-12-07T08:48:48;9.77;;;6.03;;
49412;SDS011;35493;50.276;9.372;2022-12-07T08:51:18;13.38;;;6.75;;
49412;SDS011;35493;50.276;9.372;2022-12-07T08:53:46;13.15;;;7.40;;
49412;SDS011;35493;50.276;9.372;2022-12-07T08:56:13;11.43;;;6.07;;
49412;SDS011;35493;50.276;9.372;2022-12-07T08:58:40;13.18;;;6.38;;
49412;SDS011;35493;50.276;9.372;2022-12-07T09:01:07;11.52;;;6.25;;
49412;SDS011;35493;50.276;9.372;2022-12-07T09:03:34;11.57;;;6.55;;
49412;SDS011;35493;50.276;9.372;2022-12-07T09:06:01;12.15;;;5.90;;
49412;SDS011;35493;50.276;9.372;2022-12-07T09:08:31;15.10;;;6.88;;
49412;SDS011;35493;50.276;9.372;2022-12-07T09:11:01;10.75;;;5.75;;
49412;SDS011;35493;50.276;9.372;2022-12-07T09:13:28;10.80;;;5.60;;
49412;SDS011;35493;50.276;9.372;2022-12-07T09:15:55;12.68;;;6.00;;
49412;SDS011;35493;50.276;9.372;2022-12-07T09:18:23;12.18;;;6.45;;
49412;SDS011;35493;50.276;9.372;2022-12-07T09:20:50;12.18;;;6.05;;
49412;SDS011;35493;50.276;9.372;2022-12-07T09:23:17;12.90;;;6.10;;
49412;SDS011;35493;50.276;9.372;2022-12-07T09:25:45;11.32;;;6.10;;
49412;SDS011;35493;50.276;9.372;2022-12-07T09:28:16;15.20;;;6.90;;
49412;SDS011;35493;50.276;9.372;2022-12-07T09:30:45;11.98;;;6.03;;
49412;SDS011;35493;50.276;9.372;2022-12-07T09:33:12;12.98;;;6.18;;
49412;SDS011;35493;50.276;9.372;2022-12-07T09:35:43;11.38;;;6.05;;
49412;SDS011;35493;50.276;9.372;2022-12-07T09:38:11;13.00;;;6.20;;
49412;SDS011;35493;50.276;9.372;2022-12-07T09:40:38;12.10;;;6.43;;
49412;SDS011;35493;50.276;9.372;2022-12-07T09:43:10;13.20;;;7.03;;
49412;SDS011;35493;50.276;9.372;2022-12-07T09:45:39;15.73;;;7.07;;
49412;SDS011;35493;50.276;9.372;2022-12-07T09:48:09;11.77;;;5.63;;
49412;SDS011;35493;50.276;9.372;2022-12-07T09:50:43;12.32;;;7.15;;
49412;SDS011;35493;50.276;9.372;2022-12-07T09:53:13;11.93;;;6.18;;
49412;SDS011;35493;50.276;9.372;2022-12-07T09:55:45;11.38;;;6.93;;
49412;SDS011;35493;50.276;9.372;2022-12-07T09:58:16;13.43;;;7.30;;
49412;SDS011;35493;50.276;9.372;2022-12-07T10:00:46;13.45;;;6.43;;
49412;SDS011;35493;50.276;9.372;2022-12-07T10:03:13;12.75;;;7.03;;
49412;SDS011;35493;50.276;9.372;2022-12-07T10:05:41;13.18;;;7.20;;
49412;SDS011;35493;50.276;9.372;2022-12-07T10:08:12;14.05;;;6.53;;
49412;SDS011;35493;50.276;9.372;2022-12-07T10:10:41;14.98;;;7.00;;
49412;SDS011;35493;50.276;9.372;2022-12-07T10:13:08;12.65;;;6.45;;
49412;SDS011;35493;50.276;9.372;2022-12-07T10:15:42;11.65;;;6.90;;
49412;SDS011;35493;50.276;9.372;2022-12-07T10:18:18;12.70;;;6.85;;
49412;SDS011;35493;50.276;9.372;2022-12-07T10:20:47;11.35;;;6.15;;
49412;SDS011;35493;50.276;9.372;2022-12-07T10:23:15;12.38;;;6.38;;
49412;SDS011;35493;50.276;9.372;2022-12-07T10:25:44;13.32;;;6.95;;
49412;SDS011;35493;50.276;9.372;2022-12-07T10:28:14;14.93;;;7.10;;
49412;SDS011;35493;50.276;9.372;2022-12-07T10:30:51;11.88;;;7.03;;
49412;SDS011;35493;50.276;9.372;2022-12-07T10:33:35;12.52;;;6.72;;
49412;SDS011;35493;50.276;9.372;2022-12-07T10:36:17;11.45;;;6.22;;
49412;SDS011;35493;50.276;9.372;2022-12-07T10:38:47;11.02;;;6.90;;
49412;SDS011;35493;50.276;9.372;2022-12-07T10:41:15;11.32;;;6.28;;
49412;SDS011;35493;50.276;9.372;2022-12-07T10:43:50;11.25;;;6.00;;
49412;SDS011;35493;50.276;9.372;2022-12-07T10:46:27;11.30;;;6.70;;
49412;SDS011;35493;50.276;9.372;2022-12-07T10:49:48;10.80;;;6.47;;
49412;SDS011;35493;50.276;9.372;2022-12-07T10:52:58;10.55;;;6.13;;
49412;SDS011;35493;50.276;9.372;2022-12-07T10:55:47;12.23;;;6.43;;
49412;SDS011;35493;50.276;9.372;2022-12-07T10:58:36;11.85;;;5.95;;
49412;SDS011;35493;50.276;9.372;2022-12-07T11:01:16;11.40;;;6.30;;
49412;SDS011;35493;50.276;9.372;2022-12-07T11:06:50;11.25;;;5.85;;
49412;SDS011;35493;50.276;9.372;2022-12-07T11:09:30;12.85;;;6.25;;
49412;SDS011;35493;50.276;9.372;2022-12-07T11:12:11;9.68;;;5.93;;
49412;SDS011;35493;50.276;9.372;2022-12-07T11:14:48;12.85;;;6.03;;
49412;SDS011;35493;50.276;9.372;2022-12-07T11:17:23;11.63;;;6.28;;
49412;SDS011;35493;50.276;9.372;2022-12-07T11:20:04;10.48;;;5.85;;
49412;SDS011;35493;50.276;9.372;2022-12-07T11:22:49;11.45;;;6.60;;
49412;SDS011;35493;50.276;9.372;2022-12-07T11:25:25;10.23;;;5.57;;
49412;SDS011;35493;50.276;9.372;2022-12-07T11:28:04;10.80;;;5.28;;
49412;SDS011;35493;50.276;9.372;2022-12-07T11:30:45;10.93;;;5.63;;
49412;SDS011;35493;50.276;9.372;2022-12-07T11:33:18;10.18;;;5.70;;
49412;SDS011;35493;50.276;9.372;2022-12-07T11:36:00;10.18;;;5.55;;
49412;SDS011;35493;50.276;9.372;2022-12-07T11:38:37;11.52;;;5.78;;
49412;SDS011;35493;50.276;9.372;2022-12-07T11:41:09;11.68;;;5.47;;
49412;SDS011;35493;50.276;9.372;2022-12-07T11:43:49;12.43;;;6.38;;
49412;SDS011;35493;50.276;9.372;2022-12-07T11:46:19;10.95;;;5.22;;
49412;SDS011;35493;50.276;9.372;2022-12-07T11:48:53;10.50;;;5.35;;
49412;SDS011;35493;50.276;9.372;2022-12-07T11:51:25;10.32;;;5.57;;
49412;SDS011;35493;50.276;9.372;2022-12-07T11:53:55;10.23;;;5.22;;
49412;SDS011;35493;50.276;9.372;2022-12-07T11:56:27;10.75;;;5.78;;
49412;SDS011;35493;50.276;9.372;2022-12-07T11:58:56;12.07;;;5.53;;
49412;SDS011;35493;50.276;9.372;2022-12-07T12:01:34;9.73;;;5.38;;
49412;SDS011;35493;50.276;9.372;2022-12-07T12:04:14;8.32;;;4.85;;
49412;SDS011;35493;50.276;9.372;2022-12-07T12:06:51;9.13;;;4.57;;
49412;SDS011;35493;50.276;9.372;2022-12-07T12:09:19;7.55;;;4.47;;
49412;SDS011;35493;50.276;9.372;2022-12-07T12:14:50;6.97;;;3.33;;
49412;SDS011;35493;50.276;9.372;2022-12-07T12:17:37;6.82;;;3.30;;
49412;SDS011;35493;50.276;9.372;2022-12-07T12:20:18;6.68;;;3.10;;
49412;SDS011;35493;50.276;9.372;2022-12-07T12:22:50;7.57;;;3.00;;
49412;SDS011;35493;50.276;9.372;2022-12-07T12:25:21;7.88;;;3.78;;
49412;SDS011;35493;50.276;9.372;2022-12-07T12:30:26;6.40;;;3.05;;
49412;SDS011;35493;50.276;9.372;2022-12-07T12:33:01;7.45;;;3.00;;
49412;SDS011;35493;50.276;9.372;2022-12-07T12:35:32;6.38;;;3.17;;
49412;SDS011;35493;50.276;9.372;2022-12-07T12:40:53;4.15;;;2.03;;
49412;SDS011;35493;50.276;9.372;2022-12-07T12:43:40;4.55;;;2.17;;
49412;SDS011;35493;50.276;9.372;2022-12-07T12:46:36;4.25;;;1.90;;
49412;SDS011;35493;50.276;9.372;2022-12-07T12:49:15;6.67;;;1.80;;
49412;SDS011;35493;50.276;9.372;2022-12-07T12:55:17;4.03;;;2.13;;
49412;SDS011;35493;50.276;9.372;2022-12-07T13:01:30;7.38;;;2.63;;
49412;SDS011;35493;50.276;9.372;2022-12-07T13:03:55;7.97;;;2.80;;
49412;SDS011;35493;50.276;9.372;2022-12-07T13:06:34;7.75;;;3.10;;
49412;SDS011;35493;50.276;9.372;2022-12-07T13:09:03;7.78;;;3.22;;
49412;SDS011;35493;50.276;9.372;2022-12-07T13:11:45;7.18;;;3.35;;
49412;SDS011;35493;50.276;9.372;2022-12-07T13:20:46;6.03;;;2.83;;
49412;SDS011;35493;50.276;9.372;2022-12-07T13:23:24;5.78;;;2.55;;
49412;SDS011;35493;50.276;9.372;2022-12-07T13:26:09;5.38;;;2.33;;
49412;SDS011;35493;50.276;9.372;2022-12-07T13:28:42;4.70;;;2.00;;
49412;SDS011;35493;50.276;9.372;2022-12-07T13:31:12;6.30;;;2.20;;
49412;SDS011;35493;50.276;9.372;2022-12-07T13:34:01;4.05;;;1.98;;
49412;SDS011;35493;50.276;9.372;2022-12-07T13:36:30;3.83;;;2.05;;
49412;SDS011;35493;50.276;9.372;2022-12-07T13:39:10;5.82;;;2.47;;
49412;SDS011;35493;50.276;9.372;2022-12-07T13:41:43;8.85;;;2.78;;
49412;SDS011;35493;50.276;9.372;2022-12-07T13:44:13;5.22;;;2.60;;
49412;SDS011;35493;50.276;9.372;2022-12-07T13:46:44;6.45;;;2.85;;
49412;SDS011;35493;50.276;9.372;2022-12-07T13:49:19;6.97;;;2.63;;
49412;SDS011;35493;50.276;9.372;2022-12-07T13:51:47;4.45;;;2.33;;
49412;SDS011;35493;50.276;9.372;2022-12-07T13:54:15;5.63;;;2.58;;
49412;SDS011;35493;50.276;9.372;2022-12-07T13:56:43;5.05;;;2.38;;
49412;SDS011;35493;50.276;9.372;2022-12-07T13:59:16;4.65;;;2.33;;
49412;SDS011;35493;50.276;9.372;2022-12-07T14:01:46;5.22;;;2.40;;
49412;SDS011;35493;50.276;9.372;2022-12-07T14:04:29;6.70;;;2.08;;
49412;SDS011;35493;50.276;9.372;2022-12-07T14:06:58;6.43;;;2.45;;
49412;SDS011;35493;50.276;9.372;2022-12-07T14:09:27;5.05;;;2.00;;
49412;SDS011;35493;50.276;9.372;2022-12-07T14:11:57;5.07;;;2.13;;
49412;SDS011;35493;50.276;9.372;2022-12-07T14:14:26;5.70;;;2.20;;
49412;SDS011;35493;50.276;9.372;2022-12-07T14:16:57;6.63;;;2.03;;
49412;SDS011;35493;50.276;9.372;2022-12-07T14:22:18;5.97;;;2.78;;
49412;SDS011;35493;50.276;9.372;2022-12-07T14:24:47;5.55;;;2.50;;
49412;SDS011;35493;50.276;9.372;2022-12-07T14:27:18;4.80;;;2.28;;
49412;SDS011;35493;50.276;9.372;2022-12-07T14:29:48;4.20;;;1.95;;
49412;SDS011;35493;50.276;9.372;2022-12-07T14:32:19;5.80;;;2.10;;
49412;SDS011;35493;50.276;9.372;2022-12-07T14:34:53;4.82;;;2.08;;
49412;SDS011;35493;50.276;9.372;2022-12-07T14:37:31;5.32;;;1.65;;
49412;SDS011;35493;50.276;9.372;2022-12-07T14:39:58;4.63;;;1.58;;
49412;SDS011;35493;50.276;9.372;2022-12-07T14:42:27;4.40;;;1.60;;
49412;SDS011;35493;50.276;9.372;2022-12-07T14:44:57;3.67;;;1.60;;
49412;SDS011;35493;50.276;9.372;2022-12-07T14:47:25;4.18;;;1.60;;
49412;SDS011;35493;50.276;9.372;2022-12-07T14:49:53;5.00;;;1.90;;
49412;SDS011;35493;50.276;9.372;2022-12-07T14:52:20;4.70;;;1.73;;
49412;SDS011;35493;50.276;9.372;2022-12-07T14:54:49;4.97;;;1.80;;
49412;SDS011;35493;50.276;9.372;2022-12-07T14:57:16;4.32;;;1.65;;
49412;SDS011;35493;50.276;9.372;2022-12-07T14:59:43;3.20;;;1.45;;
49412;SDS011;35493;50.276;9.372;2022-12-07T15:02:14;3.38;;;1.65;;
49412;SDS011;35493;50.276;9.372;2022-12-07T15:04:42;3.20;;;1.40;;
49412;SDS011;35493;50.276;9.372;2022-12-07T15:07:10;5.03;;;1.85;;
49412;SDS011;35493;50.276;9.372;2022-12-07T15:09:44;5.07;;;1.60;;
49412;SDS011;35493;50.276;9.372;2022-12-07T15:12:11;4.93;;;1.88;;
49412;SDS011;35493;50.276;9.372;2022-12-07T15:14:38;4.18;;;1.90;;
49412;SDS011;35493;50.276;9.372;2022-12-07T15:17:05;4.88;;;1.77;;
49412;SDS011;35493;50.276;9.372;2022-12-07T15:19:35;6.63;;;2.58;;
49412;SDS011;35493;50.276;9.372;2022-12-07T15:22:02;3.25;;;1.73;;
49412;SDS011;35493;50.276;9.372;2022-12-07T15:24:29;5.35;;;1.70;;